Time;durP1;ratioP1;P1;durP2;ratioP2;P2;SDS_P1;SDS_P2;PMS_P1;PMS_P2;Temp;Humidity;BMP_temperature;BMP_pressure;BME280_temperature;BME280_humidity;BME280_pressure;Samples;Min_cycle;Max_cycle;Signal;HPM_P1;HPM_P2
2022/06/16 00:00:44;;;;;;;8.35;3.67;;;;;;;14.95;65.67;99803.41;1755727;81;21013;-69
2022/06/16 00:03:11;;;;;;;7.35;4.15;;;;;;;14.94;65.50;99804.55;1761223;81;20993;-69
2022/06/16 00:05:40;;;;;;;10.80;4.08;;;;;;;14.97;65.62;99808.61;1758112;81;21109;-69
2022/06/16 00:08:10;;;;;;;12.65;3.90;;;;;;;14.96;65.48;99804.23;1758210;81;21586;-70
2022/06/16 00:10:38;;;;;;;6.35;3.55;;;;;;;14.98;65.36;99803.29;1752840;81;20993;-69
2022/06/16 00:13:06;;;;;;;8.25;3.92;;;;;;;14.95;65.62;99806.75;1757856;81;21097;-70
2022/06/16 00:15:32;;;;;;;8.60;3.25;;;;;;;14.93;65.67;99803.50;1761307;81;21079;-69
2022/06/16 00:17:59;;;;;;;6.05;2.98;;;;;;;14.93;65.68;99803.50;1758346;81;21524;-69
2022/06/16 00:20:26;;;;;;;6.28;3.62;;;;;;;14.94;65.60;99799.59;1758387;81;21140;-70
2022/06/16 00:22:54;;;;;;;8.55;3.90;;;;;;;14.93;65.40;99797.95;1758912;81;21039;-69
2022/06/16 00:25:20;;;;;;;7.83;3.70;;;;;;;14.92;65.39;99799.12;1758575;81;21019;-69
2022/06/16 00:27:48;;;;;;;8.75;3.37;;;;;;;14.89;65.54;99797.86;1757926;81;21067;-69
2022/06/16 00:30:15;;;;;;;14.75;4.00;;;;;;;14.86;65.66;99794.95;1750917;81;21009;-68
2022/06/16 00:32:42;;;;;;;9.98;3.40;;;;;;;14.83;65.77;99798.64;1760674;80;21097;-68
2022/06/16 00:35:10;;;;;;;5.75;3.05;;;;;;;14.82;65.80;99797.00;1758518;81;21099;-70
2022/06/16 00:37:39;;;;;;;6.60;3.20;;;;;;;14.82;65.81;99797.00;1732793;81;21004;-69
2022/06/16 00:40:08;;;;;;;7.33;3.33;;;;;;;14.85;65.74;99802.45;1761266;81;21508;-69
2022/06/16 00:42:35;;;;;;;8.85;3.22;;;;;;;14.84;65.73;99800.25;1753081;81;21633;-69
2022/06/16 00:45:03;;;;;;;6.58;3.15;;;;;;;14.85;65.88;99799.68;1759982;81;21880;-70
2022/06/16 00:47:31;;;;;;;5.45;3.25;;;;;;;14.84;65.51;99797.47;1759365;81;20993;-69
2022/06/16 00:50:01;;;;;;;9.28;2.85;;;;;;;14.82;65.67;99804.53;1759992;81;21151;-70
2022/06/16 00:52:31;;;;;;;7.97;3.15;;;;;;;14.78;65.75;99801.59;1759772;81;21024;-67
2022/06/16 00:55:09;;;;;;;7.05;3.33;;;;;;;14.74;65.84;99806.19;1758320;81;21098;-69
2022/06/16 00:57:44;;;;;;;6.22;3.42;;;;;;;14.70;65.62;99806.66;1753154;81;21186;-69
2022/06/16 01:02:44;;;;;;;9.13;3.10;;;;;;;14.62;66.26;99811.72;1756312;81;21013;-68
2022/06/16 01:05:11;;;;;;;5.80;2.98;;;;;;;14.59;66.29;99808.47;1758830;81;21059;-69
2022/06/16 01:07:42;;;;;;;9.85;2.98;;;;;;;14.61;66.24;99808.13;1760692;81;21043;-70
2022/06/16 01:10:09;;;;;;;5.67;2.75;;;;;;;14.62;66.32;99807.55;1760464;81;21433;-68
2022/06/16 01:16:13;;;;;;;7.05;3.37;;;;;;;14.65;66.29;99809.64;1759853;81;21059;-68
2022/06/16 01:18:56;;;;;;;8.23;3.60;;;;;;;14.62;66.10;99811.12;1760638;81;21023;-70
2022/06/16 01:21:41;;;;;;;7.50;2.95;;;;;;;14.59;66.28;99810.41;1755367;81;21046;-69
2022/06/16 01:24:55;;;;;;;5.70;3.20;;;;;;;14.57;66.30;99807.16;1725615;81;21717;-69
2022/06/16 01:27:45;;;;;;;4.00;2.67;;;;;;;14.56;66.31;99809.15;1758419;81;20980;-68
2022/06/16 01:30:17;;;;;;;5.58;3.20;;;;;;;14.51;66.72;99812.13;1759902;81;21114;-69
2022/06/16 01:32:53;;;;;;;7.87;3.43;;;;;;;14.53;66.35;99802.09;1764571;81;21102;-69
2022/06/16 01:35:38;;;;;;;6.53;2.90;;;;;;;14.46;66.55;99794.31;1756193;81;21039;-68
2022/06/16 01:38:41;;;;;;;7.45;4.05;;;;;;;14.44;66.58;99793.84;1760925;81;21163;-68
2022/06/16 01:41:28;;;;;;;6.83;3.37;;;;;;;14.43;66.45;99795.00;1759642;81;20995;-68
2022/06/16 01:44:02;;;;;;;12.00;3.35;;;;;;;14.36;66.80;99796.34;1758319;81;21016;-68
2022/06/16 01:46:34;;;;;;;7.62;3.90;;;;;;;14.35;66.95;99792.52;1759294;81;20990;-69
2022/06/16 01:49:07;;;;;;;8.93;4.50;;;;;;;14.40;67.29;99802.02;1752313;81;21000;-69
2022/06/16 01:51:49;;;;;;;10.00;3.62;;;;;;;14.46;66.89;99792.93;1713303;83;21272;-69
2022/06/16 01:54:22;;;;;;;11.03;4.53;;;;;;;14.49;66.83;99796.41;1713390;83;21056;-69
2022/06/16 01:57:01;;;;;;;14.85;4.78;;;;;;;14.54;67.09;99794.81;1713964;83;21023;-69
2022/06/16 01:59:49;;;;;;;8.00;3.80;;;;;;;14.59;67.20;99793.22;1714128;82;21047;-69
2022/06/16 02:02:17;;;;;;;7.62;4.10;;;;;;;14.65;66.67;99796.59;1683047;83;21032;-68
2022/06/16 02:04:59;;;;;;;10.05;5.15;;;;;;;14.69;66.82;99805.02;1718366;83;21494;-69
2022/06/16 02:07:39;;;;;;;10.32;4.97;;;;;;;14.71;66.65;99807.70;1712615;82;21044;-69
2022/06/16 02:10:16;;;;;;;13.83;5.50;;;;;;;14.72;66.56;99804.36;1710616;83;21039;-68
2022/06/16 02:12:57;;;;;;;15.15;5.55;;;;;;;14.73;66.75;99802.63;1714574;82;21015;-69
2022/06/16 02:15:35;;;;;;;15.08;6.78;;;;;;;14.79;66.91;99802.42;1753552;81;21009;-68
2022/06/16 02:18:08;;;;;;;13.65;5.90;;;;;;;14.81;66.81;99806.48;1753100;81;21093;-69
2022/06/16 02:21:11;;;;;;;14.07;6.33;;;;;;;14.87;66.73;99809.86;1732814;81;21118;-69
2022/06/16 02:23:41;;;;;;;17.07;6.75;;;;;;;14.90;66.63;99808.36;1758538;81;21059;-68
2022/06/16 02:26:07;;;;;;;13.88;6.58;;;;;;;14.90;66.10;99814.72;1758577;81;21325;-69
2022/06/16 02:28:50;;;;;;;14.45;6.10;;;;;;;14.92;66.28;99818.54;1758829;81;21118;-69
2022/06/16 02:31:50;;;;;;;12.50;5.28;;;;;;;14.92;66.17;99818.54;1712939;82;21172;-70
2022/06/16 02:35:06;;;;;;;13.28;6.35;;;;;;;14.87;66.22;99821.53;1714137;83;21063;-68
2022/06/16 02:38:07;;;;;;;12.90;6.15;;;;;;;14.87;66.49;99823.73;1716737;82;21087;-69
2022/06/16 02:40:56;;;;;;;22.02;6.83;;;;;;;14.92;66.69;99816.58;1756626;81;21043;-69
2022/06/16 02:43:46;;;;;;;21.30;7.40;;;;;;;14.97;66.43;99822.48;1709894;83;21533;-68
2022/06/16 02:46:29;;;;;;;14.23;6.50;;;;;;;14.98;66.50;99817.16;1713393;83;21471;-68
2022/06/16 02:49:27;;;;;;;13.95;6.90;;;;;;;15.02;66.63;99822.27;1705515;83;21140;-68
2022/06/16 02:52:18;;;;;;;16.15;7.30;;;;;;;15.04;66.95;99821.36;1711202;83;21000;-69
2022/06/16 02:54:53;;;;;;;16.25;6.80;;;;;;;15.11;67.09;99830.50;1719826;83;20997;-67
2022/06/16 02:57:23;;;;;;;;;;;;;;;15.15;67.04;99825.87;1761226;81;21063;-68
2022/06/16 02:59:59;;;;;;;13.18;6.15;;;;;;;15.21;67.01;99836.19;1758833;81;21232;-68
2022/06/16 03:02:26;;;;;;;17.77;6.65;;;;;;;15.24;66.93;99832.72;1709470;83;21009;-67
2022/06/16 03:04:58;;;;;;;14.33;7.00;;;;;;;15.27;66.84;99833.41;1715866;83;21083;-67
2022/06/16 03:07:25;;;;;;;18.35;6.83;;;;;;;15.28;66.85;99836.44;1708358;83;21575;-68
2022/06/16 03:09:54;;;;;;;12.00;5.72;;;;;;;15.31;66.84;99831.58;1710886;82;21508;-68
2022/06/16 03:12:23;;;;;;;14.73;6.62;;;;;;;15.33;66.84;99836.22;1751316;81;21276;-67
2022/06/16 03:14:50;;;;;;;11.63;6.03;;;;;;;15.37;66.87;99838.30;1712885;83;21024;-68
2022/06/16 03:17:17;;;;;;;9.58;4.78;;;;;;;15.40;66.75;99835.64;1714642;83;21044;-68
2022/06/16 03:19:45;;;;;;;15.98;4.37;;;;;;;15.44;66.58;99834.34;1710133;83;21070;-67
2022/06/16 03:22:18;;;;;;;18.23;4.53;;;;;;;15.45;66.45;99834.03;1712612;83;21059;-68
2022/06/16 03:24:47;;;;;;;9.13;3.65;;;;;;;15.47;66.20;99826.73;1711955;82;21138;-68
2022/06/16 03:27:18;;;;;;;6.35;3.85;;;;;;;15.48;66.26;99824.75;1758369;81;21016;-68
2022/06/16 03:29:48;;;;;;;8.68;4.17;;;;;;;15.49;66.17;99825.80;1683914;84;20996;-68
2022/06/16 03:32:15;;;;;;;14.15;4.03;;;;;;;15.52;66.13;99822.34;1684957;84;21096;-68
2022/06/16 03:34:44;;;;;;;8.90;3.47;;;;;;;15.55;66.17;99824.42;1758664;81;21067;-68
2022/06/16 03:37:12;;;;;;;9.73;3.12;;;;;;;15.58;66.15;99827.89;1757796;81;21103;-68
2022/06/16 03:39:44;;;;;;;5.40;2.95;;;;;;;15.64;66.11;99834.61;1751115;81;21051;-68
2022/06/16 03:42:11;;;;;;;6.20;3.20;;;;;;;15.66;65.90;99831.70;1758926;81;20992;-67
2022/06/16 03:44:38;;;;;;;4.97;2.95;;;;;;;15.70;65.86;99845.14;1759868;81;20984;-68
2022/06/16 03:47:08;;;;;;;7.97;3.50;;;;;;;15.72;65.86;99832.86;1751318;81;21056;-67
2022/06/16 03:49:36;;;;;;;15.25;3.35;;;;;;;15.74;65.74;99832.76;1758597;81;21381;-68
2022/06/16 03:52:05;;;;;;;7.67;2.92;;;;;;;15.79;65.65;99835.88;1759298;81;21024;-67
2022/06/16 03:54:33;;;;;;;7.83;3.00;;;;;;;15.80;65.52;99832.74;1760025;81;21062;-68
2022/06/16 03:57:01;;;;;;;4.25;2.92;;;;;;;15.87;65.67;99833.55;1755310;81;21095;-67
2022/06/16 03:59:27;;;;;;;6.17;2.27;;;;;;;15.96;65.58;99834.00;1678888;83;21549;-68
2022/06/16 04:01:56;;;;;;;5.65;2.77;;;;;;;16.02;65.49;99833.44;1709306;83;21540;-68
2022/06/16 04:04:25;;;;;;;5.90;3.00;;;;;;;16.09;65.18;99825.91;1701068;83;21060;-68
2022/06/16 04:06:51;;;;;;;4.95;2.58;;;;;;;16.16;65.01;99830.87;1733302;81;21076;-68
2022/06/16 04:09:21;;;;;;;6.30;2.77;;;;;;;16.21;65.14;99832.59;1751617;81;21036;-68
2022/06/16 04:11:51;;;;;;;9.70;2.42;;;;;;;16.26;65.07;99838.72;1752085;81;21005;-68
2022/06/16 04:14:20;;;;;;;3.98;2.12;;;;;;;16.32;65.00;99839.88;1743528;81;21218;-68
2022/06/16 04:16:56;;;;;;;6.87;2.70;;;;;;;16.41;64.79;99839.95;1742569;81;21023;-67
2022/06/16 04:19:24;;;;;;;4.05;2.22;;;;;;;16.52;64.64;99839.45;1759825;81;21004;-68
2022/06/16 04:21:53;;;;;;;3.98;2.37;;;;;;;16.64;64.39;99840.00;1759528;81;21048;-69
2022/06/16 04:24:37;;;;;;;8.15;3.02;;;;;;;16.75;64.27;99843.88;1755042;81;21011;-68
2022/06/16 04:27:05;;;;;;;4.28;2.60;;;;;;;16.87;64.30;99842.23;1735913;81;21943;-67
2022/06/16 04:29:32;;;;;;;5.15;2.80;;;;;;;16.91;63.98;99846.72;1709334;83;21024;-69
2022/06/16 04:31:59;;;;;;;6.55;3.08;;;;;;;16.99;63.77;99842.75;1703501;83;21071;-69
2022/06/16 04:34:28;;;;;;;5.70;2.67;;;;;;;17.07;63.63;99841.77;1691939;82;21365;-68
2022/06/16 04:36:55;;;;;;;5.15;3.15;;;;;;;17.15;63.51;99840.82;1707463;82;21044;-68
2022/06/16 04:39:25;;;;;;;7.62;2.60;;;;;;;17.22;63.29;99845.77;1706481;83;21393;-68
2022/06/16 04:41:53;;;;;;;4.80;3.17;;;;;;;17.29;62.98;99843.75;1734890;81;21078;-68
2022/06/16 04:44:21;;;;;;;6.35;2.35;;;;;;;17.36;62.53;99841.73;1739685;81;21075;-67
2022/06/16 04:46:49;;;;;;;6.67;3.12;;;;;;;17.39;62.11;99842.41;1706825;82;21090;-68
2022/06/16 04:49:18;;;;;;;5.78;2.22;;;;;;;17.42;61.95;99844.47;1707715;82;21047;-68
2022/06/16 04:51:46;;;;;;;6.17;3.33;;;;;;;17.49;61.74;99852.19;1706278;82;21598;-67
2022/06/16 04:54:13;;;;;;;6.75;2.77;;;;;;;17.52;61.64;99856.47;1697720;82;21642;-68
2022/06/16 04:56:47;;;;;;;7.08;2.70;;;;;;;17.56;61.48;99851.56;1664156;82;21091;-67
2022/06/16 04:59:33;;;;;;;5.75;2.62;;;;;;;17.60;61.09;99847.72;1735725;81;21775;-68
2022/06/16 05:02:18;;;;;;;8.33;2.42;;;;;;;17.68;61.09;99850.08;1701939;82;21007;-69
2022/06/16 05:04:52;;;;;;;7.20;2.65;;;;;;;17.74;60.76;99849.23;1696055;82;21559;-68
2022/06/16 05:07:37;;;;;;;7.35;2.60;;;;;;;17.81;60.20;99849.98;1703195;82;21149;-69
2022/06/16 05:10:08;;;;;;;6.83;2.15;;;;;;;17.89;60.35;99844.80;1653050;84;21032;-68
2022/06/16 05:12:49;;;;;;;7.00;2.50;;;;;;;17.89;59.93;99845.59;1704595;82;21078;-68
2022/06/16 05:15:35;;;;;;;5.28;2.65;;;;;;;17.96;59.55;99851.13;1695213;83;21033;-68
2022/06/16 05:18:12;;;;;;;4.75;2.80;;;;;;;18.04;59.54;99852.09;1675329;82;21163;-68
2022/06/16 05:20:44;;;;;;;5.60;2.02;;;;;;;18.12;59.31;99853.86;1701950;82;21040;-68
2022/06/16 05:23:16;;;;;;;6.90;2.17;;;;;;;18.20;59.26;99857.06;1702035;83;21048;-67
2022/06/16 05:26:03;;;;;;;3.83;2.00;;;;;;;18.29;58.89;99861.05;1725245;81;20997;-68
2022/06/16 05:28:36;;;;;;;2.62;1.77;;;;;;;18.39;58.68;99858.26;1733782;81;21053;-68
2022/06/16 05:31:07;;;;;;;4.80;1.70;;;;;;;18.46;58.32;99855.63;1737442;81;21790;-68
2022/06/16 05:33:36;;;;;;;10.63;2.33;;;;;;;18.54;57.86;99859.98;1716003;81;21056;-68
2022/06/16 05:36:08;;;;;;;7.45;2.25;;;;;;;18.60;58.18;99866.87;1690494;83;21016;-68
2022/06/16 05:38:41;;;;;;;4.47;2.08;;;;;;;18.65;58.42;99863.78;1708628;83;21524;-67
2022/06/16 05:41:26;;;;;;;4.87;1.82;;;;;;;18.74;58.33;99862.17;1713248;82;21008;-66
2022/06/16 05:44:03;;;;;;;4.45;1.77;;;;;;;18.81;57.11;99865.12;1708592;83;21153;-68
2022/06/16 05:46:46;;;;;;;7.22;1.95;;;;;;;18.84;56.57;99864.37;1709871;83;21008;-67
2022/06/16 05:49:15;;;;;;;4.25;1.85;;;;;;;18.87;56.09;99858.63;1693735;83;21051;-67
2022/06/16 05:51:44;;;;;;;5.95;1.65;;;;;;;18.92;56.69;99862.52;1627802;86;21078;-68
2022/06/16 05:54:13;;;;;;;3.98;1.82;;;;;;;18.98;57.18;99866.64;1662100;85;21035;-69
2022/06/16 05:56:41;;;;;;;2.50;1.50;;;;;;;19.06;57.06;99868.97;1714553;82;21497;-68
2022/06/16 05:59:08;;;;;;;9.40;1.27;;;;;;;19.15;56.34;99867.95;1711158;83;21056;-68
2022/06/16 06:01:38;;;;;;;10.35;1.82;;;;;;;19.20;55.40;99867.07;1711220;82;21024;-68
2022/06/16 06:04:07;;;;;;;9.98;1.72;;;;;;;19.25;55.40;99865.14;1683333;84;21107;-67
2022/06/16 06:06:35;;;;;;;2.95;1.50;;;;;;;19.30;54.99;99862.86;1675787;84;21119;-66
2022/06/16 06:17:22;;;;;;;3.35;1.55;;;;;;;19.51;54.38;99863.59;1709784;83;21036;-67
2022/06/16 06:19:52;;;;;;;5.45;1.95;;;;;;;19.57;53.48;99855.11;1708928;83;21161;-69
2022/06/16 06:22:24;;;;;;;2.02;1.60;;;;;;;19.65;53.10;99862.42;1685718;83;21055;-68
2022/06/16 06:24:55;;;;;;;5.30;1.42;;;;;;;19.73;54.01;99862.55;1708363;82;21575;-67
2022/06/16 06:27:41;;;;;;;2.08;1.20;;;;;;;19.79;53.64;99866.66;1713467;83;21348;-67
2022/06/16 06:30:16;;;;;;;10.55;1.65;;;;;;;19.83;53.74;99864.13;1713273;83;21097;-66
2022/06/16 06:32:44;;;;;;;2.50;1.40;;;;;;;19.91;52.79;99869.23;1711996;82;21039;-68
2022/06/16 06:35:12;;;;;;;2.52;1.22;;;;;;;19.94;52.16;99864.28;1649706;86;21284;-66
2022/06/16 06:37:38;;;;;;;1.85;1.20;;;;;;;19.98;52.00;99858.74;1653834;85;21099;-68
2022/06/16 06:40:07;;;;;;;3.83;1.07;;;;;;;20.01;51.36;99867.77;1669569;84;21563;-66
2022/06/16 06:42:35;;;;;;;3.60;1.20;;;;;;;20.04;51.75;99862.06;1699916;84;21051;-68
2022/06/16 06:45:02;;;;;;;4.50;1.32;;;;;;;20.09;51.34;99865.94;1662287;84;21055;-67
2022/06/16 06:47:32;;;;;;;4.75;1.95;;;;;;;20.15;52.06;99865.81;1669823;84;21178;-66
2022/06/16 06:49:58;;;;;;;2.62;1.20;;;;;;;20.26;52.34;99866.56;1641504;86;21397;-68
2022/06/16 06:52:27;;;;;;;1.82;1.20;;;;;;;20.35;52.42;99867.07;1696810;82;21056;-68
2022/06/16 06:54:54;;;;;;;2.90;1.40;;;;;;;20.44;51.81;99868.19;1712983;82;21055;-68
2022/06/16 06:57:26;;;;;;;3.05;1.30;;;;;;;20.52;51.58;99859.31;1719239;82;21072;-69
2022/06/16 06:59:55;;;;;;;;;;;;;;;20.58;50.51;99866.77;1713847;82;21086;-67
2022/06/16 07:02:21;;;;;;;5.83;1.47;;;;;;;20.61;49.27;99858.41;1718665;82;20455;-68
2022/06/16 07:04:48;;;;;;;1.92;1.12;;;;;;;20.64;49.17;99852.66;1687188;82;21098;-68
2022/06/16 07:07:18;;;;;;;2.87;1.30;;;;;;;20.68;50.11;99857.11;1718120;82;21082;-66
2022/06/16 07:09:46;;;;;;;3.05;1.30;;;;;;;20.73;50.27;99860.74;1714381;82;21130;-69
2022/06/16 07:12:16;;;;;;;2.87;1.25;;;;;;;20.79;49.77;99856.44;1718469;82;21214;-69
2022/06/16 07:14:44;;;;;;;4.10;1.17;;;;;;;20.89;50.21;99855.75;1710956;82;21087;-68
2022/06/16 07:17:11;;;;;;;4.30;1.37;;;;;;;21.02;49.50;99851.30;1716222;82;21016;-70
2022/06/16 07:19:38;;;;;;;7.22;1.90;;;;;;;21.09;49.27;99848.58;1718324;82;21032;-68
2022/06/16 07:22:06;;;;;;;2.22;1.15;;;;;;;21.08;47.63;99851.18;1717584;82;21046;-69
2022/06/16 07:24:33;;;;;;;5.22;1.02;;;;;;;21.11;47.58;99844.80;1712900;82;21861;-68
2022/06/16 07:27:00;;;;;;;2.55;1.30;;;;;;;21.23;47.39;99844.30;1718501;82;21122;-69
2022/06/16 07:29:28;;;;;;;3.12;1.20;;;;;;;21.36;48.27;99847.03;1672069;85;21107;-69
2022/06/16 07:31:55;;;;;;;5.72;1.22;;;;;;;21.49;47.80;99845.34;1670834;85;21071;-69
2022/06/16 07:34:21;;;;;;;2.87;0.95;;;;;;;21.57;47.13;99844.80;1667497;84;21044;-70
2022/06/16 07:36:49;;;;;;;4.30;1.00;;;;;;;21.61;46.46;99841.44;1643176;86;21500;-69
2022/06/16 07:39:18;;;;;;;1.80;0.93;;;;;;;21.66;46.84;99849.48;1689594;84;21103;-69
2022/06/16 07:41:48;;;;;;;2.30;0.90;;;;;;;21.77;45.44;99839.15;1677576;84;21091;-68
2022/06/16 07:44:16;;;;;;;5.75;1.80;;;;;;;21.92;44.68;99833.66;1683983;84;21123;-68
2022/06/16 07:46:44;;;;;;;4.12;1.00;;;;;;;22.04;44.96;99835.95;1693215;83;21095;-69
2022/06/16 07:49:12;;;;;;;3.25;1.30;;;;;;;22.06;44.68;99837.16;1731157;82;21047;-69
2022/06/16 07:51:42;;;;;;;4.17;0.90;;;;;;;22.06;44.61;99834.34;1683873;85;21048;-68
2022/06/16 07:54:10;;;;;;;1.90;0.93;;;;;;;22.08;43.96;99839.56;1692924;84;21013;-67
2022/06/16 07:56:39;;;;;;;2.40;1.10;;;;;;;22.10;44.50;99835.77;1701772;83;21008;-69
2022/06/16 07:59:08;;;;;;;4.08;1.22;;;;;;;22.12;44.87;99835.61;1732173;82;21091;-70
2022/06/16 08:01:35;;;;;;;2.27;1.20;;;;;;;22.13;43.13;99827.38;1728617;82;21159;-68
2022/06/16 08:04:05;;;;;;;3.47;1.22;;;;;;;22.11;43.90;99834.56;1730686;82;21017;-69
2022/06/16 08:06:30;;;;;;;2.22;1.02;;;;;;;22.13;44.28;99832.99;1689777;84;21697;-68
2022/06/16 08:08:57;;;;;;;4.47;1.10;;;;;;;22.23;44.20;99834.83;1691421;84;21063;-69
2022/06/16 08:14:11;;;;;;;2.25;1.22;;;;;;;22.44;44.82;99840.34;1728382;82;21553;-67
2022/06/16 08:16:38;;;;;;;2.17;0.70;;;;;;;22.48;43.78;99838.38;1732067;82;21076;-68
2022/06/16 08:19:05;;;;;;;2.62;1.27;;;;;;;22.48;43.55;99836.97;1692385;83;21627;-67
2022/06/16 08:21:32;;;;;;;2.60;0.98;;;;;;;22.50;42.74;99832.55;1687729;83;21103;-69
2022/06/16 08:23:59;;;;;;;1.37;0.80;;;;;;;22.57;42.57;99827.57;1688914;84;21552;-68
2022/06/16 08:26:27;;;;;;;1.92;0.78;;;;;;;22.63;42.20;99824.41;1691070;84;21827;-67
2022/06/16 08:28:59;;;;;;;2.72;1.15;;;;;;;22.66;43.45;99822.20;1717479;82;21036;-71
2022/06/16 08:31:26;;;;;;;1.67;1.02;;;;;;;22.81;43.98;99829.48;1681055;85;21048;-69
2022/06/16 08:33:53;;;;;;;4.03;1.05;;;;;;;22.96;42.95;99826.09;1743329;81;21020;-69
2022/06/16 08:36:20;;;;;;;3.65;1.10;;;;;;;22.95;41.99;99826.50;1759586;81;21031;-70
2022/06/16 08:38:47;;;;;;;1.35;1.10;;;;;;;23.00;43.05;99827.52;1755215;81;21113;-67
2022/06/16 08:41:47;;;;;;;4.58;1.05;;;;;;;23.08;43.15;99831.16;1754936;81;21012;-67
2022/06/16 08:44:30;;;;;;;3.37;1.07;;;;;;;23.14;43.22;99825.34;1754522;81;21043;-70
2022/06/16 08:47:11;;;;;;;2.52;1.07;;;;;;;23.08;41.68;99817.89;1703525;83;21521;-69
2022/06/16 08:50:22;;;;;;;1.50;0.82;;;;;;;23.00;41.61;99821.90;1704186;83;21478;-70
2022/06/16 08:53:12;;;;;;;4.40;1.10;;;;;;;23.03;42.44;99821.09;1692396;83;21561;-68
2022/06/16 08:56:11;;;;;;;4.83;1.10;;;;;;;23.21;40.35;99824.54;1744566;81;21516;-70
2022/06/16 08:58:58;;;;;;;1.02;0.80;;;;;;;23.37;39.78;99819.13;1749442;81;20997;-70
2022/06/16 09:01:35;;;;;;;1.90;0.82;;;;;;;23.53;39.78;99824.36;1753572;81;21102;-68
2022/06/16 09:04:10;;;;;;;2.08;0.80;;;;;;;23.68;40.85;99823.75;1754045;81;21007;-70
2022/06/16 09:07:21;;;;;;;10.60;0.72;;;;;;;23.77;40.66;99824.75;1746716;81;21677;-69
2022/06/16 09:10:14;;;;;;;1.32;0.90;;;;;;;23.81;40.15;99819.34;1734104;81;21015;-69
2022/06/16 09:13:13;;;;;;;4.00;1.07;;;;;;;23.69;39.07;99821.16;1745432;81;21067;-70
2022/06/16 09:16:00;;;;;;;2.30;0.75;;;;;;;23.31;38.53;99819.53;1743892;81;21543;-68
2022/06/16 09:18:42;;;;;;;2.35;1.17;;;;;;;23.03;39.59;99820.31;1746404;81;21524;-69
2022/06/16 09:21:38;;;;;;;1.72;0.82;;;;;;;23.03;40.87;99822.50;1744952;81;21504;-70
2022/06/16 09:24:43;;;;;;;1.77;0.90;;;;;;;23.15;40.32;99821.31;1747034;81;21119;-70
2022/06/16 09:27:56;;;;;;;2.12;0.90;;;;;;;23.27;39.89;99817.93;1737238;81;21024;-68
2022/06/16 09:30:28;;;;;;;3.95;0.82;;;;;;;23.35;40.82;99824.53;1672061;84;21520;-69
2022/06/16 09:33:04;;;;;;;1.82;0.72;;;;;;;23.37;38.95;99823.34;1635697;86;21112;-70
2022/06/16 09:35:41;;;;;;;3.98;0.70;;;;;;;23.28;38.89;99827.36;1647382;83;21141;-70
2022/06/16 09:38:29;;;;;;;2.05;0.78;;;;;;;23.27;38.96;99822.93;1700245;83;21060;-69
2022/06/16 09:44:03;;;;;;;2.72;0.75;;;;;;;23.57;38.61;99821.78;1663396;84;21073;-70
2022/06/16 09:46:35;;;;;;;2.80;1.27;;;;;;;23.83;38.58;99814.09;1669388;83;21082;-68
2022/06/16 09:49:15;;;;;;;1.95;0.88;;;;;;;24.13;38.24;99816.84;1694806;83;21770;-68
2022/06/16 09:51:50;;;;;;;4.92;0.90;;;;;;;24.37;36.50;99808.74;1696364;83;21051;-68
2022/06/16 09:54:31;;;;;;;1.07;0.68;;;;;;;24.34;35.34;99806.16;1688514;83;21521;-68
2022/06/16 09:57:05;;;;;;;3.17;1.32;;;;;;;24.39;36.12;99804.92;1640950;84;21104;-67
2022/06/16 09:59:58;;;;;;;7.00;1.30;;;;;;;24.54;37.63;99805.05;1674331;84;21063;-70
2022/06/16 10:02:33;;;;;;;3.25;1.12;;;;;;;24.71;36.93;99806.77;1695302;83;21245;-68
2022/06/16 10:04:58;;;;;;;2.10;0.98;;;;;;;24.79;37.08;99804.10;1697626;83;21063;-69
2022/06/16 10:07:31;;;;;;;3.70;1.05;;;;;;;24.78;36.56;99809.55;1687411;83;21072;-68
2022/06/16 10:10:23;;;;;;;8.28;1.10;;;;;;;24.76;36.19;99810.56;1702536;83;21040;-70
2022/06/16 10:13:17;;;;;;;4.22;0.90;;;;;;;24.78;37.45;99810.96;1697561;83;21106;-69
2022/06/16 10:16:16;;;;;;;4.12;0.90;;;;;;;24.94;39.28;99817.34;1697832;83;21615;-69
2022/06/16 10:18:42;;;;;;;2.33;1.02;;;;;;;24.98;37.90;99806.23;1677745;84;21103;-69
2022/06/16 10:21:10;;;;;;;1.92;0.80;;;;;;;25.05;37.45;99808.20;1724231;81;21005;-69
2022/06/16 10:23:58;;;;;;;7.10;1.40;;;;;;;25.12;37.58;99805.33;1726770;81;21087;-67
2022/06/16 10:26:25;;;;;;;3.37;0.95;;;;;;;25.24;37.59;99801.81;1718913;82;21579;-68
2022/06/16 10:29:09;;;;;;;6.20;0.95;;;;;;;25.34;37.51;99789.66;1697561;83;21004;-69
2022/06/16 10:31:45;;;;;;;2.92;1.00;;;;;;;25.32;36.82;99796.94;1692838;83;21052;-67
2022/06/16 10:34:34;;;;;;;3.02;1.20;;;;;;;25.28;37.92;99796.33;1686882;84;21059;-68
2022/06/16 10:37:22;;;;;;;1.62;0.90;;;;;;;25.26;37.17;99797.98;1686109;83;21084;-68
2022/06/16 10:40:09;;;;;;;3.05;1.10;;;;;;;24.97;35.72;99792.55;1677978;83;20995;-68
2022/06/16 10:42:47;;;;;;;4.90;1.05;;;;;;;24.66;36.57;99788.89;1687205;83;21835;-68
2022/06/16 10:45:27;;;;;;;2.35;1.05;;;;;;;24.47;37.50;99795.82;1715456;82;21526;-68
2022/06/16 10:48:00;;;;;;;7.45;1.10;;;;;;;24.45;37.01;99782.16;1688188;83;21075;-68
2022/06/16 10:50:39;;;;;;;2.40;0.80;;;;;;;24.30;36.06;99782.23;1683631;83;21052;-68
2022/06/16 10:53:26;;;;;;;1.27;0.88;;;;;;;24.06;36.89;99780.48;1686348;83;21087;-68
2022/06/16 10:55:56;;;;;;;3.62;1.05;;;;;;;23.96;36.75;99774.28;1671306;85;21147;-67
2022/06/16 10:58:26;;;;;;;2.05;0.80;;;;;;;23.80;36.32;99780.34;1672202;84;21004;-69
2022/06/16 11:01:15;;;;;;;2.83;1.10;;;;;;;23.61;37.04;99790.03;1679247;83;21502;-70
2022/06/16 11:03:45;;;;;;;3.05;0.85;;;;;;;23.62;36.68;99791.62;1684410;83;21101;-69
2022/06/16 11:06:15;;;;;;;10.10;1.25;;;;;;;23.58;36.16;99789.63;1681083;83;20996;-69
2022/06/16 11:08:52;;;;;;;2.27;0.72;;;;;;;23.51;36.10;99788.84;1683249;84;21545;-69
2022/06/16 11:11:40;;;;;;;4.17;0.80;;;;;;;23.44;36.58;99788.25;1663481;85;21104;-69
2022/06/16 11:14:16;;;;;;;1.60;0.85;;;;;;;23.38;36.77;99785.59;1688277;83;21478;-69
2022/06/16 11:16:50;;;;;;;2.42;0.80;;;;;;;23.41;37.21;99791.84;1694101;83;21064;-69
2022/06/16 11:19:29;;;;;;;4.28;0.88;;;;;;;23.49;37.29;99788.44;1730347;81;21067;-69
2022/06/16 11:21:57;;;;;;;1.90;0.90;;;;;;;23.61;37.73;99787.23;1649840;85;22268;-68
2022/06/16 11:24:31;;;;;;;2.47;0.60;;;;;;;23.74;37.99;99774.34;1685250;84;21449;-69
2022/06/16 11:27:10;;;;;;;3.80;0.88;;;;;;;23.95;36.83;99775.51;1692725;84;21079;-69
2022/06/16 11:29:38;;;;;;;4.15;1.00;;;;;;;24.16;38.66;99771.80;1693227;84;21025;-69
2022/06/16 11:32:19;;;;;;;1.25;0.65;;;;;;;24.48;37.65;99770.70;1689301;84;21035;-70
2022/06/16 11:34:48;;;;;;;1.50;0.90;;;;;;;24.70;37.45;99776.20;1683727;84;21858;-69
2022/06/16 11:37:48;;;;;;;1.47;0.65;;;;;;;24.88;36.25;99773.27;1710735;82;21040;-68
2022/06/16 11:40:46;;;;;;;3.15;1.67;;;;;;;25.00;35.17;99772.81;1650823;83;21063;-67
2022/06/16 11:44:00;;;;;;;2.10;0.78;;;;;;;25.00;35.45;99773.41;1717005;83;21054;-67
2022/06/16 11:46:51;;;;;;;1.25;0.70;;;;;;;25.10;34.97;99763.27;1745704;81;21074;-66
2022/06/16 11:49:38;;;;;;;0.80;0.68;;;;;;;25.20;35.42;99764.42;1706551;82;21106;-70
2022/06/16 11:52:29;;;;;;;1.45;0.88;;;;;;;25.20;34.37;99768.02;1709802;82;21487;-68
2022/06/16 11:55:22;;;;;;;1.35;0.70;;;;;;;25.10;35.46;99767.49;1736288;81;21107;-69
2022/06/16 11:58:09;;;;;;;4.67;0.68;;;;;;;25.08;35.03;99763.68;1685743;84;21138;-69
2022/06/16 12:00:54;;;;;;;4.83;0.93;;;;;;;25.04;34.24;99767.93;1674408;83;21123;-68
2022/06/16 12:03:50;;;;;;;2.72;0.82;;;;;;;24.92;35.33;99765.63;1671528;82;21566;-68
2022/06/16 12:06:45;;;;;;;0.95;0.60;;;;;;;24.94;34.71;99764.61;1713711;83;21494;-69
2022/06/16 12:09:33;;;;;;;2.30;0.95;;;;;;;24.98;34.48;99761.14;1712218;83;21068;-69
2022/06/16 12:12:31;;;;;;;1.40;0.95;;;;;;;25.13;35.96;99761.05;1695737;82;21059;-68
2022/06/16 12:15:28;;;;;;;1.25;0.80;;;;;;;25.26;34.75;99761.34;1715190;83;22267;-70
2022/06/16 12:18:20;;;;;;;2.90;1.05;;;;;;;25.29;33.71;99759.09;1681746;82;21994;-69
2022/06/16 12:21:20;;;;;;;1.45;0.70;;;;;;;25.18;32.84;99755.57;1713048;82;21342;-68
2022/06/16 12:24:08;;;;;;;5.22;1.10;;;;;;;25.26;32.77;99743.82;1704004;82;21084;-69
2022/06/16 12:26:51;;;;;;;4.75;1.10;;;;;;;25.38;32.13;99745.92;1677471;84;21051;-69
2022/06/16 12:29:46;;;;;;;2.30;0.90;;;;;;;25.38;31.51;99750.16;1695589;83;21045;-69
2022/06/16 12:32:39;;;;;;;3.67;1.07;;;;;;;25.39;32.25;99746.11;1719730;81;21340;-69